Harmonsburg, Pennsylvania
Current Conditions -  °F | °C
As of 8:53 PM on Sunday 21 Dec 2014 (Local Time) from KGKJ Reporting Station
Overcast Overcast  
Wind Chill: 29°   Ceiling: 2100
Heat Index: 29°   Visibility: 10mi
Dew Point: 20°   Wind: 0mph
Humidity: 69%   Direction: NA
Pressure: 30.22"   Gusts: NA
Location:  41.66°N, 80.32°W
Report Text: KGKJ 220153Z AUTO 00000KT 10SM OVC021 M02/M07 A3022 RMK AO2 SLP249 T10171067 TSNO $
Loading
Personal Weather Stations






























Interactive Weather Map New forecast layout! Learn more

10-Day Weather Forecast

Advertisements
Track Severe Weather on mobile